createdAt,value
2022-11-20T00:00:17.009Z,-0.87
2022-11-20T00:02:43.550Z,-0.87
2022-11-20T00:05:10.076Z,-0.90
2022-11-20T00:07:36.721Z,-0.90
2022-11-20T00:10:03.775Z,-0.93
2022-11-20T00:12:30.267Z,-0.93
2022-11-20T00:14:56.771Z,-0.97
2022-11-20T00:17:23.962Z,-1.00
2022-11-20T00:19:50.491Z,-1.04
2022-11-20T00:22:17.032Z,-1.11
2022-11-20T00:24:43.615Z,-1.14
2022-11-20T00:27:10.137Z,-1.13
2022-11-20T00:29:36.668Z,-1.10
2022-11-20T00:32:03.311Z,-1.11
2022-11-20T00:34:29.855Z,-1.10
2022-11-20T00:36:56.534Z,-0.90
2022-11-20T00:39:23.462Z,-0.99
2022-11-20T00:41:50.184Z,-1.01
2022-11-20T00:44:16.675Z,-1.03
2022-11-20T00:46:43.236Z,-1.06
2022-11-20T00:49:09.756Z,-1.04
2022-11-20T00:51:36.861Z,-1.03
2022-11-20T00:54:03.605Z,-0.87
2022-11-20T00:56:30.204Z,-0.90
2022-11-20T00:59:00.598Z,-1.00
2022-11-20T01:01:30.324Z,-1.08
2022-11-20T01:03:59.434Z,-1.08
2022-11-20T01:06:28.160Z,-1.10
2022-11-20T01:08:58.074Z,-1.16
2022-11-20T01:11:29.841Z,-1.21
2022-11-20T01:13:58.157Z,-1.25
2022-11-20T01:16:32.916Z,-1.24
2022-11-20T01:19:02.381Z,-1.23
2022-11-20T01:21:34.244Z,-1.27
2022-11-20T01:24:01.754Z,-1.31
2022-11-20T01:26:31.523Z,-1.34
2022-11-20T01:28:58.789Z,-1.33
2022-11-20T01:31:29.185Z,-1.31
2022-11-20T01:33:58.747Z,-1.31
2022-11-20T01:36:28.588Z,-1.17
2022-11-20T01:38:57.649Z,-1.13
2022-11-20T01:41:44.489Z,-1.20
2022-11-20T01:44:13.760Z,-1.25
2022-11-20T01:46:43.401Z,-1.33
2022-11-20T01:49:23.826Z,-1.23
2022-11-20T01:52:22.382Z,-1.24
2022-11-20T01:55:00.641Z,-1.33
2022-11-20T01:57:30.742Z,-1.34
2022-11-20T02:00:05.426Z,-1.34
2022-11-20T02:02:32.790Z,-1.34
2022-11-20T02:05:05.662Z,-1.34
2022-11-20T02:07:32.585Z,-1.30
2022-11-20T02:09:59.557Z,-1.33
2022-11-20T02:12:45.189Z,-1.31
2022-11-20T02:15:11.866Z,-1.33
2022-11-20T02:17:38.770Z,-1.23
2022-11-20T02:20:06.644Z,-1.23
2022-11-20T02:22:40.801Z,-1.20
2022-11-20T02:25:09.429Z,-1.20
2022-11-20T02:27:36.096Z,-1.17
2022-11-20T02:30:05.690Z,-1.23
2022-11-20T02:32:35.265Z,-1.31
2022-11-20T02:35:28.228Z,-1.30
2022-11-20T02:37:57.265Z,-1.27
2022-11-20T02:40:24.124Z,-1.34
2022-11-20T02:42:57.482Z,-1.35
2022-11-20T02:45:25.361Z,-1.33
2022-11-20T02:47:52.630Z,-1.30
2022-11-20T02:50:19.480Z,-1.35
2022-11-20T02:52:46.357Z,-1.33
2022-11-20T02:55:12.884Z,-1.28
2022-11-20T02:57:39.493Z,-1.28
2022-11-20T03:00:07.782Z,-1.31
2022-11-20T03:02:35.204Z,-1.33
2022-11-20T03:05:02.000Z,-1.30
2022-11-20T03:07:28.630Z,-1.27
2022-11-20T03:09:55.241Z,-1.33
2022-11-20T03:12:21.808Z,-1.33
2022-11-20T03:14:52.780Z,-1.37
2022-11-20T03:17:20.054Z,-1.34
2022-11-20T03:19:46.744Z,-1.38
2022-11-20T03:22:13.318Z,-1.43
2022-11-20T03:24:39.815Z,-1.43
2022-11-20T03:27:06.384Z,-1.47
2022-11-20T03:29:33.389Z,-1.47
2022-11-20T03:31:59.966Z,-1.52
2022-11-20T03:34:26.504Z,-1.59
2022-11-20T03:36:53.033Z,-1.54
2022-11-20T03:39:19.928Z,-1.54
2022-11-20T03:41:46.694Z,-1.56
2022-11-20T03:44:13.429Z,-1.56
2022-11-20T03:46:40.164Z,-1.55
2022-11-20T03:49:06.984Z,-1.55
2022-11-20T03:51:36.167Z,-1.54
2022-11-20T03:54:07.496Z,-1.54
2022-11-20T03:56:36.797Z,-1.52
2022-11-20T03:59:04.540Z,-1.51
2022-11-20T04:01:33.544Z,-1.58
2022-11-20T04:04:00.277Z,-1.59
2022-11-20T04:06:29.234Z,-1.59
2022-11-20T04:08:57.034Z,-1.59
2022-11-20T04:11:25.573Z,-1.58
2022-11-20T04:13:55.023Z,-1.64
2022-11-20T04:16:22.961Z,-1.59
2022-11-20T04:18:54.094Z,-1.58
2022-11-20T04:21:20.860Z,-1.59
2022-11-20T04:23:47.447Z,-1.59
2022-11-20T04:26:13.990Z,-1.59
2022-11-20T04:28:40.593Z,-1.61
2022-11-20T04:31:09.212Z,-1.61
2022-11-20T04:33:36.817Z,-1.56
2022-11-20T04:36:10.778Z,-1.55
2022-11-20T04:38:37.530Z,-1.58
2022-11-20T04:41:06.572Z,-1.64
2022-11-20T04:43:34.404Z,-1.59
2022-11-20T04:46:02.003Z,-1.61
2022-11-20T04:48:30.052Z,-1.68
2022-11-20T04:50:57.435Z,-1.68
2022-11-20T04:53:25.052Z,-1.65
2022-11-20T04:55:51.613Z,-1.62
2022-11-20T04:58:18.244Z,-1.56
2022-11-20T05:00:44.835Z,-1.59
2022-11-20T05:03:11.490Z,-1.55
2022-11-20T05:05:38.008Z,-1.52
2022-11-20T05:08:04.795Z,-1.51
2022-11-20T05:10:31.322Z,-1.54
2022-11-20T05:12:58.335Z,-1.54
2022-11-20T05:15:25.271Z,-1.54
2022-11-20T05:17:53.279Z,-1.52
2022-11-20T05:20:20.166Z,-1.54
2022-11-20T05:22:47.172Z,-1.55
2022-11-20T05:25:13.810Z,-1.52
2022-11-20T05:27:40.437Z,-1.54
2022-11-20T05:30:07.543Z,-1.51
2022-11-20T05:32:34.090Z,-1.50
2022-11-20T05:35:00.620Z,-1.52
2022-11-20T05:37:27.160Z,-1.44
2022-11-20T05:39:54.164Z,-1.50
2022-11-20T05:42:32.763Z,-1.41
2022-11-20T05:45:00.711Z,-1.47
2022-11-20T05:47:28.895Z,-1.54
2022-11-20T05:49:55.567Z,-1.56
2022-11-20T05:52:22.276Z,-1.52
2022-11-20T05:54:49.013Z,-1.50
2022-11-20T05:57:15.643Z,-1.55
2022-11-20T05:59:42.427Z,-1.58
2022-11-20T06:02:08.951Z,-1.59
2022-11-20T06:04:35.523Z,-1.58
2022-11-20T06:07:02.055Z,-1.52
2022-11-20T06:09:28.644Z,-1.43
2022-11-20T06:11:55.260Z,-1.44
2022-11-20T06:14:21.802Z,-1.40
2022-11-20T06:16:48.343Z,-1.35
2022-11-20T06:19:15.939Z,-1.31
2022-11-20T06:21:42.567Z,-1.25
2022-11-20T06:24:11.425Z,-1.28
2022-11-20T06:26:38.073Z,-1.23
2022-11-20T06:29:04.593Z,-1.24
2022-11-20T06:31:33.744Z,-1.24
2022-11-20T06:34:02.243Z,-1.27
2022-11-20T06:36:28.837Z,-1.25
2022-11-20T06:38:55.380Z,-1.27
2022-11-20T06:41:23.189Z,-1.27
2022-11-20T06:43:50.178Z,-1.20
2022-11-20T06:46:20.355Z,-1.33
2022-11-20T06:48:50.906Z,-1.34
2022-11-20T06:51:18.013Z,-1.37
2022-11-20T06:53:44.547Z,-1.35
2022-11-20T06:56:11.137Z,-1.34
2022-11-20T06:58:38.205Z,-1.34
2022-11-20T07:01:13.478Z,-1.33
2022-11-20T07:03:41.249Z,-1.30
2022-11-20T07:06:09.195Z,-1.24
2022-11-20T07:08:36.119Z,-1.25
2022-11-20T07:11:05.928Z,-1.27
2022-11-20T07:13:32.856Z,-1.33
2022-11-20T07:16:04.334Z,-1.31
2022-11-20T07:18:31.150Z,-1.31
2022-11-20T07:21:01.974Z,-1.28
2022-11-20T07:23:28.669Z,-1.24
2022-11-20T07:25:55.198Z,-1.11
2022-11-20T07:28:21.739Z,-1.10
2022-11-20T07:30:52.663Z,-1.06
2022-11-20T07:33:19.388Z,-1.08
2022-11-20T07:35:46.186Z,-0.99
2022-11-20T07:38:12.798Z,-1.03
2022-11-20T07:40:39.465Z,-1.13
2022-11-20T07:43:06.032Z,-1.00
2022-11-20T07:45:32.779Z,-0.75
2022-11-20T07:47:59.303Z,-0.66
2022-11-20T07:50:25.978Z,-0.75
2022-11-20T07:52:53.473Z,-0.93
2022-11-20T07:55:19.982Z,-0.96
2022-11-20T07:57:46.486Z,-0.97
2022-11-20T08:00:33.390Z,-0.97
2022-11-20T08:03:01.033Z,-0.90
2022-11-20T08:05:28.755Z,-0.79
2022-11-20T08:07:57.626Z,-0.69
2022-11-20T08:10:25.531Z,-0.59
2022-11-20T08:13:12.617Z,-0.54
2022-11-20T08:15:41.609Z,-0.44
2022-11-20T08:21:05.087Z,-0.18
2022-11-20T08:23:32.186Z,-0.11
2022-11-20T08:25:58.710Z,0.00
2022-11-20T08:28:25.206Z,-0.07
2022-11-20T08:30:52.058Z,0.11
2022-11-20T08:33:19.145Z,0.07
2022-11-20T08:35:45.786Z,-0.01
2022-11-20T08:38:12.504Z,-0.03
2022-11-20T08:40:39.051Z,-0.06
2022-11-20T08:43:06.098Z,-0.13
2022-11-20T08:45:34.918Z,-0.07
2022-11-20T08:48:04.682Z,-0.04
2022-11-20T08:50:33.467Z,0.06
2022-11-20T08:53:06.603Z,0.06
2022-11-20T08:55:36.392Z,0.13
2022-11-20T08:58:06.842Z,0.20
2022-11-20T09:00:34.644Z,0.30
2022-11-20T09:03:02.297Z,0.23
2022-11-20T09:05:29.092Z,0.11
2022-11-20T09:07:59.366Z,0.20
2022-11-20T09:10:29.858Z,0.20
2022-11-20T09:12:57.149Z,0.14
2022-11-20T09:15:25.136Z,0.28
2022-11-20T09:17:56.487Z,0.32
2022-11-20T09:20:23.486Z,0.34
2022-11-20T09:22:50.300Z,0.38
2022-11-20T09:25:17.295Z,0.48
2022-11-20T09:27:45.149Z,0.58
2022-11-20T09:30:12.812Z,0.66
2022-11-20T09:32:43.934Z,0.76
2022-11-20T09:35:11.669Z,0.78
2022-11-20T09:37:38.830Z,0.92
2022-11-20T09:40:06.119Z,1.03
2022-11-20T09:42:38.646Z,1.00
2022-11-20T09:45:20.301Z,1.02
2022-11-20T09:48:05.421Z,1.06
2022-11-20T09:50:42.653Z,1.10
2022-11-20T09:53:41.942Z,1.00
2022-11-20T09:56:10.506Z,0.99
2022-11-20T09:59:02.619Z,0.97
2022-11-20T10:01:37.027Z,1.10
2022-11-20T10:04:22.264Z,1.20
2022-11-20T10:10:01.410Z,1.50
2022-11-20T10:12:30.914Z,1.71
2022-11-20T10:15:21.305Z,1.85
2022-11-20T10:18:00.602Z,1.95
2022-11-20T10:20:47.516Z,1.98
2022-11-20T10:23:51.072Z,2.02
2022-11-20T10:26:41.087Z,2.17
2022-11-20T10:29:18.013Z,2.27
2022-11-20T10:31:48.815Z,2.40
2022-11-20T10:34:35.018Z,2.46
2022-11-20T10:37:10.660Z,2.65
2022-11-20T10:39:41.459Z,2.61
2022-11-20T10:42:18.472Z,2.53
2022-11-20T10:45:06.101Z,2.29
2022-11-20T10:47:33.806Z,2.26
2022-11-20T10:50:06.926Z,2.33
2022-11-20T10:52:48.487Z,2.46
2022-11-20T10:55:41.856Z,2.61
2022-11-20T10:58:15.625Z,2.65
2022-11-20T11:00:43.248Z,2.61
2022-11-20T11:03:28.440Z,2.48
2022-11-20T11:06:09.111Z,2.60
2022-11-20T11:08:39.841Z,2.64
2022-11-20T11:11:24.970Z,2.65
2022-11-20T11:13:51.834Z,2.57
2022-11-20T11:16:26.630Z,2.58
2022-11-20T11:19:05.206Z,2.62
2022-11-20T11:21:31.886Z,2.67
2022-11-20T11:24:26.841Z,2.77
2022-11-20T11:27:00.671Z,2.60
2022-11-20T11:29:30.380Z,2.48
2022-11-20T11:32:12.458Z,2.47
2022-11-20T11:34:39.075Z,2.70
2022-11-20T11:37:11.312Z,2.67
2022-11-20T11:39:42.391Z,2.64
2022-11-20T11:42:15.698Z,2.71
2022-11-20T11:45:05.195Z,2.74
2022-11-20T11:47:34.516Z,2.71
2022-11-20T11:50:10.157Z,2.78
2022-11-20T11:52:56.114Z,2.84
2022-11-20T11:55:28.489Z,2.91
2022-11-20T11:57:58.106Z,3.08
2022-11-20T12:00:24.636Z,3.04
2022-11-20T12:03:14.610Z,3.06
2022-11-20T12:06:09.730Z,3.09
2022-11-20T12:08:47.814Z,3.13
2022-11-20T12:11:24.273Z,3.13
2022-11-20T12:13:59.365Z,3.23
2022-11-20T12:16:26.134Z,3.25
2022-11-20T12:18:53.810Z,3.29
2022-11-20T12:21:29.359Z,3.32
2022-11-20T12:24:10.916Z,3.33
2022-11-20T12:27:14.763Z,3.36
2022-11-20T12:30:04.070Z,3.40
2022-11-20T12:32:33.773Z,3.37
2022-11-20T12:35:17.254Z,3.44
2022-11-20T12:37:53.327Z,3.50
2022-11-20T12:40:49.303Z,3.53
2022-11-20T12:43:48.401Z,3.42
2022-11-20T12:46:33.426Z,3.36
2022-11-20T12:49:02.748Z,3.32
2022-11-20T12:52:00.522Z,3.47
2022-11-20T12:55:15.571Z,3.42
2022-11-20T12:57:44.932Z,3.44
2022-11-20T13:00:17.887Z,3.49
2022-11-20T13:03:06.291Z,3.52
2022-11-20T13:05:51.196Z,3.43
2022-11-20T13:08:59.587Z,3.59
2022-11-20T13:11:41.287Z,3.52
2022-11-20T13:14:26.490Z,3.50
2022-11-20T13:17:06.376Z,3.46
2022-11-20T13:19:34.029Z,3.64
2022-11-20T13:22:01.084Z,3.60
2022-11-20T13:24:31.832Z,3.64
2022-11-20T13:27:13.380Z,3.66
2022-11-20T13:29:44.565Z,3.59
2022-11-20T13:32:20.948Z,3.62
2022-11-20T13:35:05.435Z,3.66
2022-11-20T13:37:38.245Z,3.69
2022-11-20T13:40:11.492Z,3.70
2022-11-20T13:42:46.498Z,3.80
2022-11-20T13:45:31.397Z,3.80
2022-11-20T13:48:01.195Z,3.83
2022-11-20T13:50:36.846Z,3.83
2022-11-20T13:53:26.969Z,3.88
2022-11-20T13:56:28.156Z,3.88
2022-11-20T13:58:54.613Z,3.91
2022-11-20T14:01:26.640Z,3.90
2022-11-20T14:04:09.869Z,3.98
2022-11-20T14:06:49.724Z,3.94
2022-11-20T14:09:27.682Z,3.91
2022-11-20T14:11:54.333Z,3.91
2022-11-20T14:14:24.026Z,3.94
2022-11-20T14:16:51.551Z,3.99
2022-11-20T14:19:20.992Z,4.01
2022-11-20T14:21:48.809Z,4.04
2022-11-20T14:24:20.619Z,4.01
2022-11-20T14:26:48.496Z,4.05
2022-11-20T14:29:20.811Z,4.02
2022-11-20T14:31:54.120Z,4.06
2022-11-20T14:34:29.988Z,4.08
2022-11-20T14:37:01.992Z,4.14
2022-11-20T14:39:42.770Z,4.08
2022-11-20T14:42:21.581Z,4.01
2022-11-20T14:44:49.710Z,4.01
2022-11-20T14:47:27.518Z,4.05
2022-11-20T14:49:56.555Z,4.04
2022-11-20T14:52:28.319Z,4.06
2022-11-20T14:54:57.614Z,4.02
2022-11-20T14:57:38.988Z,4.01
2022-11-20T15:00:24.427Z,4.04
2022-11-20T15:02:54.112Z,4.05
2022-11-20T15:05:23.873Z,4.04
2022-11-20T15:08:09.396Z,4.08
2022-11-20T15:10:36.293Z,4.09
2022-11-20T15:13:13.201Z,4.14
2022-11-20T15:15:45.612Z,4.14
2022-11-20T15:18:14.897Z,4.12
2022-11-20T15:20:42.555Z,4.14
2022-11-20T15:23:14.215Z,4.16
2022-11-20T15:25:43.388Z,4.18
2022-11-20T15:28:35.288Z,4.23
2022-11-20T15:31:03.387Z,4.22
2022-11-20T15:33:31.021Z,4.21
2022-11-20T15:35:58.060Z,4.26
2022-11-20T15:38:24.698Z,4.21
2022-11-20T15:40:51.254Z,4.23
2022-11-20T15:43:17.785Z,4.25
2022-11-20T15:45:50.561Z,4.22
2022-11-20T15:48:30.110Z,4.21
2022-11-20T15:51:08.654Z,4.21
2022-11-20T15:53:35.218Z,4.22
2022-11-20T15:56:02.421Z,4.23
2022-11-20T15:58:28.971Z,4.23
2022-11-20T16:00:55.799Z,4.22
2022-11-20T16:03:22.469Z,4.23
2022-11-20T16:05:49.122Z,4.28
2022-11-20T16:08:15.808Z,4.35
2022-11-20T16:10:42.488Z,4.33
2022-11-20T16:13:36.554Z,4.32
2022-11-20T16:16:10.051Z,4.33
2022-11-20T16:18:36.665Z,4.33
2022-11-20T16:21:03.527Z,4.38
2022-11-20T16:23:30.239Z,4.33
2022-11-20T16:25:57.100Z,4.36
2022-11-20T16:28:23.766Z,4.50
2022-11-20T16:30:50.290Z,4.42
2022-11-20T16:33:18.439Z,4.49
2022-11-20T16:35:45.045Z,4.54
2022-11-20T16:38:11.622Z,4.60
2022-11-20T16:40:38.187Z,4.62
2022-11-20T16:43:10.636Z,4.69
2022-11-20T16:45:45.382Z,4.70
2022-11-20T16:48:16.946Z,4.71
2022-11-20T16:50:53.788Z,4.76
2022-11-20T16:53:21.971Z,4.85
2022-11-20T16:55:48.889Z,5.00
2022-11-20T16:58:15.829Z,4.95
2022-11-20T17:00:46.891Z,5.04
2022-11-20T17:03:18.020Z,5.14
2022-11-20T17:05:44.538Z,5.11
2022-11-20T17:08:11.048Z,5.07
2022-11-20T17:10:37.670Z,5.10
2022-11-20T17:13:04.225Z,5.11
2022-11-20T17:15:31.450Z,5.15
2022-11-20T17:17:58.026Z,5.34
2022-11-20T17:20:24.560Z,5.50
2022-11-20T17:22:51.080Z,5.46
2022-11-20T17:25:17.672Z,5.45
2022-11-20T17:27:44.232Z,5.22
2022-11-20T17:30:10.898Z,5.15
2022-11-20T17:32:37.529Z,5.14
2022-11-20T17:35:05.187Z,5.32
2022-11-20T17:37:31.742Z,5.31
2022-11-20T17:39:58.360Z,5.29
2022-11-20T17:42:27.822Z,5.32
2022-11-20T17:44:54.431Z,5.20
2022-11-20T17:47:20.967Z,5.35
2022-11-20T17:49:47.457Z,5.18
2022-11-20T17:52:13.959Z,5.17
2022-11-20T17:54:40.470Z,5.21
2022-11-20T17:57:27.206Z,5.21
2022-11-20T17:59:53.847Z,5.21
2022-11-20T18:02:20.403Z,5.14
2022-11-20T18:04:46.922Z,5.02
2022-11-20T18:07:13.590Z,4.95
2022-11-20T18:09:40.393Z,5.04
2022-11-20T18:12:07.109Z,4.95
2022-11-20T18:14:34.685Z,4.85
2022-11-20T18:17:04.413Z,4.77
2022-11-20T18:20:21.365Z,4.69
2022-11-20T18:22:38.189Z,4.76
2022-11-20T18:25:05.280Z,4.84
2022-11-20T18:27:31.904Z,4.95
2022-11-20T18:29:58.447Z,4.85
2022-11-20T18:32:25.043Z,4.83
2022-11-20T18:34:51.623Z,4.80
2022-11-20T18:37:18.306Z,4.80
2022-11-20T18:39:45.026Z,4.92
2022-11-20T18:42:35.289Z,4.73
2022-11-20T18:45:04.513Z,4.80
2022-11-20T18:47:34.122Z,4.69
2022-11-20T18:50:01.903Z,4.53
2022-11-20T18:52:34.173Z,4.43
2022-11-20T18:55:05.565Z,4.59
2022-11-20T18:57:32.773Z,4.66
2022-11-20T19:00:08.327Z,4.67
2022-11-20T19:02:41.044Z,4.59
2022-11-20T19:05:10.582Z,4.49
2022-11-20T19:07:37.146Z,4.57
2022-11-20T19:10:04.603Z,4.64
2022-11-20T19:12:31.498Z,4.57
2022-11-20T19:14:58.146Z,4.67
2022-11-20T19:17:24.696Z,4.76
2022-11-20T19:19:55.296Z,4.81
2022-11-20T19:22:22.190Z,4.83
2022-11-20T19:24:49.281Z,4.83
2022-11-20T19:27:15.834Z,4.88
2022-11-20T19:29:42.473Z,4.83
2022-11-20T19:32:09.069Z,4.80
2022-11-20T19:34:35.596Z,4.76
2022-11-20T19:37:02.339Z,4.76
2022-11-20T19:39:28.937Z,4.81
2022-11-20T19:41:55.668Z,4.90
2022-11-20T19:44:22.479Z,4.88
2022-11-20T19:46:50.864Z,4.98
2022-11-20T19:49:17.472Z,4.91
2022-11-20T19:51:46.997Z,4.83
2022-11-20T19:54:14.334Z,4.85
2022-11-20T19:56:41.341Z,5.01
2022-11-20T19:59:07.919Z,5.01
2022-11-20T20:01:35.388Z,4.97
2022-11-20T20:04:03.662Z,5.02
2022-11-20T20:06:31.411Z,5.01
2022-11-20T20:09:07.293Z,4.92
2022-11-20T20:11:34.884Z,4.92
2022-11-20T20:14:06.474Z,5.08
2022-11-20T20:16:34.394Z,5.28
2022-11-20T20:19:02.792Z,5.22
2022-11-20T20:21:30.627Z,5.25
2022-11-20T20:23:58.413Z,5.21
2022-11-20T20:26:27.027Z,5.11
2022-11-20T20:28:54.149Z,4.95
2022-11-20T20:31:24.885Z,4.90
2022-11-20T20:33:51.705Z,4.67
2022-11-20T20:36:20.241Z,4.63
2022-11-20T20:38:47.214Z,4.60
2022-11-20T20:41:14.840Z,4.59
2022-11-20T20:44:00.238Z,4.54
2022-11-20T20:46:26.901Z,4.50
2022-11-20T20:49:12.287Z,4.62
2022-11-20T20:51:38.836Z,4.48
2022-11-20T20:54:05.467Z,4.48
2022-11-20T20:56:33.166Z,4.35
2022-11-20T20:58:59.640Z,4.48
2022-11-20T21:01:28.803Z,4.53
2022-11-20T21:03:56.725Z,4.54
2022-11-20T21:06:23.496Z,4.49
2022-11-20T21:08:50.626Z,4.48
2022-11-20T21:11:19.237Z,4.45
2022-11-20T21:13:47.775Z,4.45
2022-11-20T21:16:15.817Z,4.42
2022-11-20T21:18:42.677Z,4.48
2022-11-20T21:21:31.825Z,4.50
2022-11-20T21:23:58.426Z,4.54
2022-11-20T21:26:25.125Z,4.46
2022-11-20T21:28:51.934Z,4.49
2022-11-20T21:31:25.086Z,4.50
2022-11-20T21:33:53.781Z,4.57
2022-11-20T21:36:22.372Z,4.71
2022-11-20T21:38:51.638Z,4.79
2022-11-20T21:41:18.238Z,4.77
2022-11-20T21:43:44.857Z,4.88
2022-11-20T21:46:14.110Z,4.84
2022-11-20T21:48:42.674Z,4.84
2022-11-20T21:51:17.591Z,4.84
2022-11-20T21:53:45.795Z,4.94
2022-11-20T21:56:18.980Z,4.84
2022-11-20T21:58:47.149Z,4.71
2022-11-20T22:01:26.736Z,4.52
2022-11-20T22:03:58.563Z,4.42
2022-11-20T22:06:27.063Z,4.35
2022-11-20T22:08:53.643Z,4.33
2022-11-20T22:11:21.439Z,4.41
2022-11-20T22:14:07.180Z,4.48
2022-11-20T22:16:35.383Z,4.52
2022-11-20T22:19:01.939Z,4.56
2022-11-20T22:21:30.585Z,4.63
2022-11-20T22:23:57.970Z,4.56
2022-11-20T22:26:27.348Z,4.52
2022-11-20T22:28:56.126Z,4.49
2022-11-20T22:31:27.887Z,4.46
2022-11-20T22:33:54.685Z,4.59
2022-11-20T22:36:23.792Z,4.35
2022-11-20T22:38:51.107Z,4.46
2022-11-20T22:41:27.458Z,4.48
2022-11-20T22:44:03.296Z,4.60
2022-11-20T22:46:33.103Z,4.50
2022-11-20T22:49:02.250Z,4.50
2022-11-20T22:51:31.973Z,4.52
2022-11-20T22:53:58.970Z,4.50
2022-11-20T22:56:25.634Z,4.52
2022-11-20T22:58:53.833Z,4.49
